^^
Station Historical Data
 
Daily Summary for February 24, 2018 Units:  English    Metric   Both
« Previous Day
Next Day »
Daily Weekly Monthly Yearly Custom
  Current: High: Low: Average:
Temperature: 43.0 °F 43.0 °F 28.6 °F 35.6 °F
Dew Point: 7.7 °F 8.7 °F 2.7 °F 5.5 °F
Humidity: 23% 35% 23% 28%
Wind Speed: 5.1mph 12.4mph 0.0mph 4.4mph
Wind Gust: 5.1mph 13.0mph - -
WindSouth - - SW
Pressure: 30.15 in 30.17 in 30.13 in -
Precipitation: 0.00 in      
Historical Graphs
 
 
Tabular Data for February 24, 2018
Time Temperature Dew Point Pressure Wind Wind Speed Wind Gust Humidity Rainfall Rate (Hourly) solar Conditions
00:00 37.4 °F 5.6 °F 30.13 in North 6.0 mph 13.0 mph 26% 0.00 in 0.0 W/m2 CLR
00:05 37.4 °F 5.6 °F 30.13 in NE 12.4 mph 12.4 mph 26% 0.00 in 0.0 W/m2 CLR
00:10 37.4 °F 5.6 °F 30.14 in NW 9.2 mph 9.2 mph 26% 0.00 in 0.0 W/m2 CLR
00:15 37.4 °F 5.6 °F 30.14 in East 8.1 mph 8.1 mph 26% 0.00 in 0.0 W/m2 CLR
00:20 37.3 °F 5.5 °F 30.14 in NNW 5.8 mph 5.8 mph 26% 0.00 in 0.0 W/m2 CLR
00:25 37.2 °F 6.2 °F 30.14 in NE 5.8 mph 5.8 mph 27% 0.00 in 0.0 W/m2 CLR
00:30 37.0 °F 6.1 °F 30.14 in North 5.8 mph 5.8 mph 27% 0.00 in 0.0 W/m2 CLR
00:35 36.8 °F 5.9 °F 30.14 in NNW 8.9 mph 8.9 mph 27% 0.00 in 0.0 W/m2 CLR
00:41 36.8 °F 5.9 °F 30.14 in NW 8.1 mph 8.1 mph 27% 0.00 in 0.0 W/m2 CLR
00:46 36.8 °F 5.9 °F 30.13 in NNW 6.9 mph 6.9 mph 27% 0.00 in 0.0 W/m2 CLR
00:51 36.7 °F 5.8 °F 30.14 in NNE 8.1 mph 8.1 mph 27% 0.00 in 0.0 W/m2 CLR
00:57 36.7 °F 5.8 °F 30.14 in NW 6.9 mph 6.9 mph 27% 0.00 in 0.0 W/m2 CLR
01:02 36.7 °F 5.8 °F 30.14 in North 4.6 mph 4.6 mph 27% 0.00 in 0.0 W/m2 CLR
01:07 36.5 °F 5.6 °F 30.14 in North 3.5 mph 3.5 mph 27% 0.00 in 0.0 W/m2 CLR
01:12 36.2 °F 5.4 °F 30.14 in North 2.3 mph 2.3 mph 27% 0.00 in 0.0 W/m2 CLR
01:17 35.8 °F 5.0 °F 30.14 in NW 2.6 mph 2.6 mph 27% 0.00 in 0.0 W/m2 CLR
01:23 35.5 °F 4.8 °F 30.13 in NW 1.2 mph 1.2 mph 27% 0.00 in 0.0 W/m2 CLR
01:28 35.3 °F 5.4 °F 30.13 in NW 3.5 mph 3.5 mph 28% 0.00 in 0.0 W/m2 CLR
01:33 35.2 °F 5.3 °F 30.13 in NNE 4.6 mph 4.6 mph 28% 0.00 in 0.0 W/m2 CLR
01:38 35.5 °F 5.6 °F 30.13 in NW 8.1 mph 8.1 mph 28% 0.00 in 0.0 W/m2 CLR
01:43 35.6 °F 5.6 °F 30.13 in North 5.8 mph 5.8 mph 28% 0.00 in 0.0 W/m2 CLR
01:48 35.6 °F 4.8 °F 30.13 in North 4.6 mph 4.6 mph 27% 0.00 in 0.0 W/m2 CLR
01:53 35.6 °F 4.8 °F 30.13 in North 6.8 mph 6.8 mph 27% 0.00 in 0.0 W/m2 CLR
01:59 35.6 °F 4.8 °F 30.13 in North 6.8 mph 6.8 mph 27% 0.00 in 0.0 W/m2 CLR
02:04 35.6 °F 4.8 °F 30.13 in NNE 4.6 mph 4.6 mph 27% 0.00 in 0.0 W/m2 CLR
02:09 35.5 °F 4.8 °F 30.13 in North 4.6 mph 4.6 mph 27% 0.00 in 0.0 W/m2 CLR
02:14 35.3 °F 5.4 °F 30.13 in North 3.3 mph 3.3 mph 28% 0.00 in 0.0 W/m2 CLR
02:19 35.2 °F 5.3 °F 30.13 in North 5.8 mph 5.8 mph 28% 0.00 in 0.0 W/m2 CLR
02:24 35.3 °F 5.4 °F 30.13 in NNE 4.6 mph 4.6 mph 28% 0.00 in 0.0 W/m2 CLR
02:29 35.4 °F 4.7 °F 30.13 in NE 3.5 mph 3.5 mph 27% 0.00 in 0.0 W/m2 CLR
02:34 35.3 °F 4.6 °F 30.13 in NW 6.9 mph 6.9 mph 27% 0.00 in 0.0 W/m2 CLR
02:39 35.2 °F 5.3 °F 30.13 in North 8.1 mph 8.1 mph 28% 0.00 in 0.0 W/m2 CLR
02:44 35.2 °F 4.5 °F 30.13 in North 5.8 mph 5.8 mph 27% 0.00 in 0.0 W/m2 CLR
02:49 35.1 °F 4.4 °F 30.13 in NNE 4.6 mph 4.6 mph 27% 0.00 in 0.0 W/m2 CLR
02:54 34.9 °F 4.2 °F 30.13 in North 9.3 mph 9.3 mph 27% 0.00 in 0.0 W/m2 CLR
02:59 34.9 °F 4.2 °F 30.13 in NW 5.4 mph 5.4 mph 27% 0.00 in 0.0 W/m2 CLR
03:05 35.0 °F 4.3 °F 30.13 in NNW 8.2 mph 8.2 mph 27% 0.00 in 0.0 W/m2 CLR
03:10 35.1 °F 4.4 °F 30.13 in North 6.9 mph 6.9 mph 27% 0.00 in 0.0 W/m2 CLR
03:15 35.0 °F 4.3 °F 30.13 in North 6.1 mph 6.1 mph 27% 0.00 in 0.0 W/m2 CLR
03:20 35.1 °F 4.4 °F 30.13 in North 8.1 mph 8.1 mph 27% 0.00 in 0.0 W/m2 CLR
03:25 35.3 °F 4.6 °F 30.13 in North 5.8 mph 5.8 mph 27% 0.00 in 0.0 W/m2 CLR
03:30 35.4 °F 4.7 °F 30.13 in NE 7.2 mph 7.2 mph 27% 0.00 in 0.0 W/m2 CLR
03:35 35.4 °F 4.7 °F 30.13 in North 10.4 mph 10.4 mph 27% 0.00 in 0.0 W/m2 CLR
03:40 35.3 °F 4.6 °F 30.13 in North 4.6 mph 4.6 mph 27% 0.00 in 0.0 W/m2 CLR
03:45 35.2 °F 4.5 °F 30.13 in North 8.1 mph 8.1 mph 27% 0.00 in 0.0 W/m2 CLR
03:50 35.1 °F 4.4 °F 30.13 in North 6.9 mph 6.9 mph 27% 0.00 in 0.0 W/m2 CLR
03:55 35.0 °F 4.3 °F 30.13 in NE 5.8 mph 5.8 mph 27% 0.00 in 0.0 W/m2 CLR
04:00 34.9 °F 4.2 °F 30.13 in NNE 4.9 mph 4.9 mph 27% 0.00 in 0.0 W/m2 CLR
04:05 34.9 °F 4.2 °F 30.13 in North 4.7 mph 4.7 mph 27% 0.00 in 0.0 W/m2 CLR
04:10 34.8 °F 4.2 °F 30.13 in North 5.8 mph 5.8 mph 27% 0.00 in 0.0 W/m2 CLR
04:15 34.7 °F 4.1 °F 30.13 in West 5.8 mph 5.8 mph 27% 0.00 in 0.0 W/m2 CLR
04:20 34.6 °F 4.0 °F 30.13 in North 6.9 mph 6.9 mph 27% 0.00 in 0.0 W/m2 CLR
04:26 34.4 °F 3.8 °F 30.13 in NNE 4.6 mph 4.6 mph 27% 0.00 in 0.0 W/m2 CLR
04:31 34.2 °F 3.6 °F 30.13 in NNW 3.5 mph 3.5 mph 27% 0.00 in 0.0 W/m2 CLR
04:36 34.0 °F 4.3 °F 30.13 in NW 2.1 mph 2.1 mph 28% 0.00 in 0.0 W/m2 CLR
04:41 33.9 °F 4.2 °F 30.13 in WNW 4.6 mph 4.6 mph 28% 0.00 in 0.0 W/m2 CLR
04:46 33.8 °F 4.1 °F 30.13 in West 2.3 mph 2.3 mph 28% 0.00 in 0.0 W/m2 CLR
04:51 33.6 °F 3.9 °F 30.13 in NW 3.5 mph 3.5 mph 28% 0.00 in 0.0 W/m2 CLR
04:56 33.4 °F 2.9 °F 30.13 in Calm     27% 0.00 in 0.0 W/m2 CLR
05:01 33.2 °F 2.8 °F 30.14 in Calm     27% 0.00 in 0.0 W/m2 CLR
05:06 32.7 °F 3.1 °F 30.14 in SSW 2.3 mph 2.3 mph 28% 0.00 in 0.0 W/m2 CLR
05:11 32.2 °F 2.7 °F 30.14 in Calm     28% 0.00 in 0.0 W/m2 CLR
05:16 31.7 °F 3.0 °F 30.14 in Calm     29% 0.00 in 0.0 W/m2 CLR
05:21 31.1 °F 3.2 °F 30.14 in Calm     30% 0.00 in 0.0 W/m2 CLR
05:26 30.6 °F 2.8 °F 30.14 in Calm     30% 0.00 in 0.0 W/m2 CLR
05:31 30.2 °F 3.1 °F 30.14 in SSW 2.3 mph 2.3 mph 31% 0.00 in 0.0 W/m2 CLR
05:36 29.9 °F 3.6 °F 30.14 in SSW 2.3 mph 2.3 mph 32% 0.00 in 0.0 W/m2 CLR
05:42 29.5 °F 3.9 °F 30.14 in Calm     33% 0.00 in 0.0 W/m2 CLR
05:47 29.0 °F 4.1 °F 30.14 in Calm     34% 0.00 in 0.0 W/m2 CLR
05:52 28.6 °F 3.7 °F 30.14 in SSW 2.3 mph 2.3 mph 34% 0.00 in 0.0 W/m2 CLR
05:57 28.6 °F 4.4 °F 30.14 in SSW 2.3 mph 2.3 mph 35% 0.00 in 0.0 W/m2 CLR
06:02 29.1 °F 4.2 °F 30.14 in SSW 1.6 mph 1.6 mph 34% 0.00 in 0.0 W/m2 CLR
06:07 29.4 °F 4.4 °F 30.14 in SSW 2.3 mph 2.3 mph 34% 0.00 in 0.0 W/m2 CLR
06:12 29.5 °F 4.5 °F 30.14 in SW 3.7 mph 3.7 mph 34% 0.00 in 0.0 W/m2 CLR
06:17 29.7 °F 4.7 °F 30.14 in SW 3.5 mph 3.5 mph 34% 0.00 in 0.0 W/m2 CLR
06:22 29.9 °F 4.2 °F 30.15 in SW 3.5 mph 3.5 mph 33% 0.00 in 9.0 W/m2 CLR
06:27 30.0 °F 4.3 °F 30.15 in SW 2.3 mph 2.3 mph 33% 0.00 in 12.0 W/m2 CLR
06:32 30.1 °F 4.4 °F 30.14 in SW 2.3 mph 2.3 mph 33% 0.00 in 10.0 W/m2 CLR
06:37 30.1 °F 3.7 °F 30.14 in SSW 2.6 mph 2.6 mph 32% 0.00 in 9.0 W/m2 CLR
06:42 30.2 °F 3.8 °F 30.14 in SW 3.5 mph 3.5 mph 32% 0.00 in 12.0 W/m2 CLR
06:48 30.5 °F 4.1 °F 30.14 in SW 3.5 mph 3.5 mph 32% 0.00 in 15.0 W/m2 CLR
06:53 30.9 °F 4.4 °F 30.14 in SW 4.4 mph 4.4 mph 32% 0.00 in 17.0 W/m2 CLR
06:58 31.5 °F 4.3 °F 30.14 in WSW 2.6 mph 2.6 mph 31% 0.00 in 20.0 W/m2 CLR
07:03 31.9 °F 4.6 °F 30.15 in WSW 2.3 mph 2.3 mph 31% 0.00 in 59.0 W/m2 CLR
07:08 32.3 °F 5.0 °F 30.15 in SW 2.3 mph 2.3 mph 31% 0.00 in 109.0 W/m2 CLR
07:13 32.8 °F 5.4 °F 30.15 in SW 1.4 mph 1.4 mph 31% 0.00 in 109.0 W/m2 CLR
07:18 33.4 °F 6.0 °F 30.16 in SW 3.5 mph 3.5 mph 31% 0.00 in 31.0 W/m2 CLR
07:23 34.0 °F 5.8 °F 30.15 in SW 1.2 mph 1.2 mph 30% 0.00 in 54.0 W/m2 CLR
07:28 34.5 °F 6.2 °F 30.16 in Calm     30% 0.00 in 134.0 W/m2 CLR
07:33 35.1 °F 6.7 °F 30.16 in SSW 2.3 mph 2.3 mph 30% 0.00 in 162.0 W/m2 CLR
07:38 35.9 °F 7.4 °F 30.16 in SSW 1.4 mph   30% 0.00 in 195.0 W/m2 CLR
07:43 36.6 °F 8.0 °F 30.16 in South 1.2 mph 1.2 mph 30% 0.00 in 212.0 W/m2 CLR
07:48 37.1 °F 8.5 °F 30.17 in SSW 1.4 mph 1.4 mph 30% 0.00 in 242.0 W/m2 CLR
07:53 37.5 °F 8.1 °F 30.17 in SW 1.2 mph   29% 0.00 in 278.0 W/m2 CLR
07:58 38.0 °F 8.5 °F 30.17 in South 2.3 mph 2.3 mph 29% 0.00 in 290.0 W/m2 CLR
08:03 38.6 °F 8.2 °F 30.17 in SSE 4.4 mph 4.4 mph 28% 0.00 in 303.0 W/m2 CLR
08:09 38.9 °F 7.7 °F 30.16 in SSW 1.2 mph   27% 0.00 in 316.0 W/m2 CLR
08:14 39.3 °F 8.0 °F 30.16 in SSE 5.8 mph 5.8 mph 27% 0.00 in 328.0 W/m2 CLR
08:19 39.8 °F 8.5 °F 30.16 in SSE 2.3 mph 2.3 mph 27% 0.00 in 349.0 W/m2 CLR
08:24 40.1 °F 8.7 °F 30.16 in SSE 2.3 mph 2.3 mph 27% 0.00 in 375.0 W/m2 CLR
08:29 40.4 °F 8.2 °F 30.16 in ESE 2.3 mph 2.3 mph 26% 0.00 in 394.0 W/m2 CLR
08:34 40.2 °F 8.0 °F 30.16 in SSE 4.6 mph 4.6 mph 26% 0.00 in 414.0 W/m2 CLR
08:39 40.1 °F 7.0 °F 30.16 in East 5.4 mph 5.4 mph 25% 0.00 in 437.0 W/m2 CLR
08:44 40.3 °F 7.2 °F 30.17 in SW 4.9 mph 4.9 mph 25% 0.00 in 449.0 W/m2 CLR
08:49 40.4 °F 7.3 °F 30.16 in South 5.8 mph 5.8 mph 25% 0.00 in 470.0 W/m2 CLR
08:54 40.5 °F 8.2 °F 30.16 in SE 5.8 mph 5.8 mph 26% 0.00 in 490.0 W/m2 CLR
08:59 40.6 °F 7.5 °F 30.16 in SSE 4.7 mph 4.7 mph 25% 0.00 in 497.0 W/m2 CLR
09:04 40.6 °F 7.5 °F 30.16 in South 3.5 mph 3.5 mph 25% 0.00 in 509.0 W/m2 CLR
09:10 41.1 °F 7.9 °F 30.16 in South 4.4 mph 4.4 mph 25% 0.00 in 522.0 W/m2 CLR
09:15 41.2 °F 8.0 °F 30.16 in South 4.6 mph 4.6 mph 25% 0.00 in 537.0 W/m2 CLR
09:20 41.3 °F 8.1 °F 30.16 in SSE 5.1 mph 5.1 mph 25% 0.00 in 547.0 W/m2 CLR
09:25 41.7 °F 7.5 °F 30.16 in South 5.8 mph 5.8 mph 24% 0.00 in 557.0 W/m2 CLR
09:30 41.7 °F 7.5 °F 30.16 in SE 4.6 mph 4.6 mph 24% 0.00 in 569.0 W/m2 CLR
09:35 41.9 °F 7.7 °F 30.16 in SE 5.8 mph 5.8 mph 24% 0.00 in 584.0 W/m2 CLR
09:40 42.3 °F 8.0 °F 30.16 in SSE 6.9 mph 6.9 mph 24% 0.00 in 590.0 W/m2 CLR
09:41 42.4 °F 8.1 °F 30.16 in SSE 8.1 mph 8.1 mph 24% 0.00 in 597.0 W/m2 CLR
09:46 42.7 °F 8.4 °F 30.15 in SE 5.8 mph 5.8 mph 24% 0.00 in 603.0 W/m2 CLR
09:52 42.8 °F 8.4 °F 30.15 in SSE 4.6 mph 4.6 mph 24% 0.00 in 616.0 W/m2 CLR
09:57 43.0 °F 8.6 °F 30.15 in SSW 3.5 mph 3.5 mph 24% 0.00 in 631.0 W/m2 CLR
10:02 43.0 °F 7.7 °F 30.15 in South 5.1 mph 5.1 mph 23% 0.00 in 640.0 W/m2 FEW
Las Vegas Weather Guy, Las Vegas, USA
Compliments of Weather Underground - 2 mb